sensor_id;sensor_type;location;lat;lon;timestamp;temperature;humidity
4386;DHT22;2207;53.540;10.042;2023-05-07T00:01:58;9.30;75.20
4386;DHT22;2207;53.540;10.042;2023-05-07T00:04:25;9.30;75.30
4386;DHT22;2207;53.540;10.042;2023-05-07T00:06:51;9.30;75.70
4386;DHT22;2207;53.540;10.042;2023-05-07T00:09:18;9.30;75.80
4386;DHT22;2207;53.540;10.042;2023-05-07T00:11:45;9.30;75.80
4386;DHT22;2207;53.540;10.042;2023-05-07T00:14:13;9.30;75.80
4386;DHT22;2207;53.540;10.042;2023-05-07T00:16:40;9.30;75.80
4386;DHT22;2207;53.540;10.042;2023-05-07T00:19:06;9.30;75.60
4386;DHT22;2207;53.540;10.042;2023-05-07T00:21:33;9.30;75.60
4386;DHT22;2207;53.540;10.042;2023-05-07T00:24:00;9.30;75.60
4386;DHT22;2207;53.540;10.042;2023-05-07T00:26:27;9.30;75.70
4386;DHT22;2207;53.540;10.042;2023-05-07T00:28:53;9.30;75.70
4386;DHT22;2207;53.540;10.042;2023-05-07T00:31:22;9.30;75.60
4386;DHT22;2207;53.540;10.042;2023-05-07T00:33:48;9.30;75.70
4386;DHT22;2207;53.540;10.042;2023-05-07T00:36:15;9.30;75.70
4386;DHT22;2207;53.540;10.042;2023-05-07T00:38:42;9.30;75.40
4386;DHT22;2207;53.540;10.042;2023-05-07T00:41:08;9.30;75.30
4386;DHT22;2207;53.540;10.042;2023-05-07T00:43:35;9.40;75.40
4386;DHT22;2207;53.540;10.042;2023-05-07T00:46:02;9.30;75.40
4386;DHT22;2207;53.540;10.042;2023-05-07T00:48:30;9.30;75.30
4386;DHT22;2207;53.540;10.042;2023-05-07T00:50:58;9.40;75.30
4386;DHT22;2207;53.540;10.042;2023-05-07T00:53:25;9.40;75.20
4386;DHT22;2207;53.540;10.042;2023-05-07T00:55:52;9.40;75.10
4386;DHT22;2207;53.540;10.042;2023-05-07T00:58:19;9.40;75.20
4386;DHT22;2207;53.540;10.042;2023-05-07T01:00:47;9.30;75.20
4386;DHT22;2207;53.540;10.042;2023-05-07T01:03:14;9.30;75.10
4386;DHT22;2207;53.540;10.042;2023-05-07T01:05:43;9.40;75.10
4386;DHT22;2207;53.540;10.042;2023-05-07T01:08:12;9.40;75.10
4386;DHT22;2207;53.540;10.042;2023-05-07T01:10:40;9.30;75.20
4386;DHT22;2207;53.540;10.042;2023-05-07T01:13:08;9.40;75.30
4386;DHT22;2207;53.540;10.042;2023-05-07T01:15:35;9.40;75.20
4386;DHT22;2207;53.540;10.042;2023-05-07T01:18:02;9.40;75.20
4386;DHT22;2207;53.540;10.042;2023-05-07T01:20:29;9.40;75.20
4386;DHT22;2207;53.540;10.042;2023-05-07T01:22:57;9.40;75.20
4386;DHT22;2207;53.540;10.042;2023-05-07T01:25:25;9.40;75.00
4386;DHT22;2207;53.540;10.042;2023-05-07T01:27:52;9.40;75.00
4386;DHT22;2207;53.540;10.042;2023-05-07T01:30:20;9.40;74.70
4386;DHT22;2207;53.540;10.042;2023-05-07T01:32:49;9.40;74.60
4386;DHT22;2207;53.540;10.042;2023-05-07T01:35:19;9.40;74.50
4386;DHT22;2207;53.540;10.042;2023-05-07T01:37:48;9.40;74.50
4386;DHT22;2207;53.540;10.042;2023-05-07T01:40:17;9.50;74.40
4386;DHT22;2207;53.540;10.042;2023-05-07T01:42:44;9.50;74.30
4386;DHT22;2207;53.540;10.042;2023-05-07T01:45:11;9.50;74.40
4386;DHT22;2207;53.540;10.042;2023-05-07T01:47:38;9.50;74.40
4386;DHT22;2207;53.540;10.042;2023-05-07T01:50:06;9.50;74.40
4386;DHT22;2207;53.540;10.042;2023-05-07T01:52:34;9.50;74.30
4386;DHT22;2207;53.540;10.042;2023-05-07T01:55:01;9.50;74.30
4386;DHT22;2207;53.540;10.042;2023-05-07T01:57:29;9.50;74.20
4386;DHT22;2207;53.540;10.042;2023-05-07T01:59:56;9.50;74.10
4386;DHT22;2207;53.540;10.042;2023-05-07T02:02:22;9.50;74.10
4386;DHT22;2207;53.540;10.042;2023-05-07T02:04:49;9.50;73.90
4386;DHT22;2207;53.540;10.042;2023-05-07T02:07:16;9.50;73.80
4386;DHT22;2207;53.540;10.042;2023-05-07T02:09:42;9.50;73.90
4386;DHT22;2207;53.540;10.042;2023-05-07T02:12:09;9.50;73.90
4386;DHT22;2207;53.540;10.042;2023-05-07T02:14:37;9.50;73.80
4386;DHT22;2207;53.540;10.042;2023-05-07T02:17:04;9.50;73.80
4386;DHT22;2207;53.540;10.042;2023-05-07T02:19:30;9.50;73.70
4386;DHT22;2207;53.540;10.042;2023-05-07T02:21:57;9.50;73.70
4386;DHT22;2207;53.540;10.042;2023-05-07T02:24:24;9.40;73.70
4386;DHT22;2207;53.540;10.042;2023-05-07T02:26:50;9.40;73.90
4386;DHT22;2207;53.540;10.042;2023-05-07T02:29:17;9.40;74.00
4386;DHT22;2207;53.540;10.042;2023-05-07T02:31:45;9.40;74.00
4386;DHT22;2207;53.540;10.042;2023-05-07T02:34:12;9.40;74.10
4386;DHT22;2207;53.540;10.042;2023-05-07T02:36:39;9.30;74.30
4386;DHT22;2207;53.540;10.042;2023-05-07T02:39:06;9.30;74.50
4386;DHT22;2207;53.540;10.042;2023-05-07T02:41:32;9.30;74.40
4386;DHT22;2207;53.540;10.042;2023-05-07T02:43:59;9.30;74.60
4386;DHT22;2207;53.540;10.042;2023-05-07T02:46:26;9.30;74.70
4386;DHT22;2207;53.540;10.042;2023-05-07T02:48:54;9.30;74.80
4386;DHT22;2207;53.540;10.042;2023-05-07T02:51:22;9.30;74.90
4386;DHT22;2207;53.540;10.042;2023-05-07T02:53:49;9.30;75.00
4386;DHT22;2207;53.540;10.042;2023-05-07T02:56:15;9.30;75.00
4386;DHT22;2207;53.540;10.042;2023-05-07T02:58:42;9.30;75.00
4386;DHT22;2207;53.540;10.042;2023-05-07T03:01:09;9.30;75.10
4386;DHT22;2207;53.540;10.042;2023-05-07T03:03:36;9.30;75.10
4386;DHT22;2207;53.540;10.042;2023-05-07T03:06:04;9.20;74.90
4386;DHT22;2207;53.540;10.042;2023-05-07T03:08:34;9.20;75.00
4386;DHT22;2207;53.540;10.042;2023-05-07T03:11:01;9.20;75.20
4386;DHT22;2207;53.540;10.042;2023-05-07T03:13:28;9.20;75.20
4386;DHT22;2207;53.540;10.042;2023-05-07T03:15:55;9.20;75.20
4386;DHT22;2207;53.540;10.042;2023-05-07T03:18:22;9.20;75.20
4386;DHT22;2207;53.540;10.042;2023-05-07T03:20:49;9.20;75.20
4386;DHT22;2207;53.540;10.042;2023-05-07T03:23:17;9.20;75.30
4386;DHT22;2207;53.540;10.042;2023-05-07T03:25:43;9.20;75.40
4386;DHT22;2207;53.540;10.042;2023-05-07T03:28:10;9.20;75.40
4386;DHT22;2207;53.540;10.042;2023-05-07T03:30:37;9.20;75.60
4386;DHT22;2207;53.540;10.042;2023-05-07T03:33:03;9.20;75.40
4386;DHT22;2207;53.540;10.042;2023-05-07T03:35:30;9.30;75.60
4386;DHT22;2207;53.540;10.042;2023-05-07T03:37:57;9.30;75.30
4386;DHT22;2207;53.540;10.042;2023-05-07T03:40:25;9.30;75.30
4386;DHT22;2207;53.540;10.042;2023-05-07T03:42:51;9.30;75.10
4386;DHT22;2207;53.540;10.042;2023-05-07T03:45:18;9.30;74.80
4386;DHT22;2207;53.540;10.042;2023-05-07T03:47:45;9.30;74.60
4386;DHT22;2207;53.540;10.042;2023-05-07T03:50:11;9.30;74.50
4386;DHT22;2207;53.540;10.042;2023-05-07T03:52:38;9.40;74.70
4386;DHT22;2207;53.540;10.042;2023-05-07T03:55:06;9.40;74.30
4386;DHT22;2207;53.540;10.042;2023-05-07T03:57:34;9.40;74.40
4386;DHT22;2207;53.540;10.042;2023-05-07T04:00:01;9.40;73.80
4386;DHT22;2207;53.540;10.042;2023-05-07T04:02:29;9.40;73.60
4386;DHT22;2207;53.540;10.042;2023-05-07T04:04:56;9.40;73.50
4386;DHT22;2207;53.540;10.042;2023-05-07T04:07:22;9.40;73.50
4386;DHT22;2207;53.540;10.042;2023-05-07T04:09:49;9.40;73.60
4386;DHT22;2207;53.540;10.042;2023-05-07T04:12:16;9.40;73.60
4386;DHT22;2207;53.540;10.042;2023-05-07T04:14:44;9.50;73.50
4386;DHT22;2207;53.540;10.042;2023-05-07T04:17:11;9.50;73.40
4386;DHT22;2207;53.540;10.042;2023-05-07T04:19:38;9.50;73.30
4386;DHT22;2207;53.540;10.042;2023-05-07T04:22:04;9.50;73.20
4386;DHT22;2207;53.540;10.042;2023-05-07T04:24:31;9.50;73.20
4386;DHT22;2207;53.540;10.042;2023-05-07T04:26:58;9.50;73.30
4386;DHT22;2207;53.540;10.042;2023-05-07T04:29:25;9.50;73.30
4386;DHT22;2207;53.540;10.042;2023-05-07T04:31:53;9.50;73.40
4386;DHT22;2207;53.540;10.042;2023-05-07T04:34:21;9.50;73.30
4386;DHT22;2207;53.540;10.042;2023-05-07T04:36:47;9.50;73.10
4386;DHT22;2207;53.540;10.042;2023-05-07T04:39:14;9.60;73.10
4386;DHT22;2207;53.540;10.042;2023-05-07T04:41:41;9.60;73.30
4386;DHT22;2207;53.540;10.042;2023-05-07T04:44:08;9.60;73.10
4386;DHT22;2207;53.540;10.042;2023-05-07T04:46:35;9.60;73.00
4386;DHT22;2207;53.540;10.042;2023-05-07T04:49:03;9.60;72.80
4386;DHT22;2207;53.540;10.042;2023-05-07T04:51:29;9.60;73.40
4386;DHT22;2207;53.540;10.042;2023-05-07T04:53:58;9.60;72.60
4386;DHT22;2207;53.540;10.042;2023-05-07T04:56:27;9.70;72.60
4386;DHT22;2207;53.540;10.042;2023-05-07T04:58:54;9.70;72.40
4386;DHT22;2207;53.540;10.042;2023-05-07T05:01:20;9.80;72.10
4386;DHT22;2207;53.540;10.042;2023-05-07T05:03:47;9.80;71.70
4386;DHT22;2207;53.540;10.042;2023-05-07T05:06:15;9.80;71.60
4386;DHT22;2207;53.540;10.042;2023-05-07T05:08:42;9.80;71.70
4386;DHT22;2207;53.540;10.042;2023-05-07T05:11:08;9.80;71.50
4386;DHT22;2207;53.540;10.042;2023-05-07T05:13:35;9.80;71.30
4386;DHT22;2207;53.540;10.042;2023-05-07T05:16:02;9.80;71.20
4386;DHT22;2207;53.540;10.042;2023-05-07T05:18:29;9.80;71.20
4386;DHT22;2207;53.540;10.042;2023-05-07T05:20:55;9.80;71.20
4386;DHT22;2207;53.540;10.042;2023-05-07T05:23:23;9.90;71.50
4386;DHT22;2207;53.540;10.042;2023-05-07T05:25:50;9.90;71.20
4386;DHT22;2207;53.540;10.042;2023-05-07T05:28:21;9.90;70.90
4386;DHT22;2207;53.540;10.042;2023-05-07T05:30:48;9.90;71.00
4386;DHT22;2207;53.540;10.042;2023-05-07T05:33:14;9.90;71.00
4386;DHT22;2207;53.540;10.042;2023-05-07T05:35:41;9.90;71.00
4386;DHT22;2207;53.540;10.042;2023-05-07T05:38:08;9.90;71.10
4386;DHT22;2207;53.540;10.042;2023-05-07T05:40:36;9.90;71.20
4386;DHT22;2207;53.540;10.042;2023-05-07T05:43:03;9.90;70.80
4386;DHT22;2207;53.540;10.042;2023-05-07T05:45:29;10.00;70.00
4386;DHT22;2207;53.540;10.042;2023-05-07T05:47:56;10.00;69.70
4386;DHT22;2207;53.540;10.042;2023-05-07T05:50:23;10.00;69.60
4386;DHT22;2207;53.540;10.042;2023-05-07T05:52:50;10.00;69.30
4386;DHT22;2207;53.540;10.042;2023-05-07T05:55:17;9.90;70.40
4386;DHT22;2207;53.540;10.042;2023-05-07T05:57:45;9.90;70.40
4386;DHT22;2207;53.540;10.042;2023-05-07T06:00:12;9.90;70.60
4386;DHT22;2207;53.540;10.042;2023-05-07T06:02:39;10.00;69.50
4386;DHT22;2207;53.540;10.042;2023-05-07T06:05:06;10.00;69.20
4386;DHT22;2207;53.540;10.042;2023-05-07T06:07:33;10.00;69.20
4386;DHT22;2207;53.540;10.042;2023-05-07T06:10:00;10.10;69.30
4386;DHT22;2207;53.540;10.042;2023-05-07T06:12:26;10.10;69.10
4386;DHT22;2207;53.540;10.042;2023-05-07T06:14:55;10.10;68.90
4386;DHT22;2207;53.540;10.042;2023-05-07T06:17:21;10.10;69.10
4386;DHT22;2207;53.540;10.042;2023-05-07T06:19:48;10.10;68.90
4386;DHT22;2207;53.540;10.042;2023-05-07T06:22:14;10.20;69.20
4386;DHT22;2207;53.540;10.042;2023-05-07T06:24:41;10.30;69.10
4386;DHT22;2207;53.540;10.042;2023-05-07T06:27:08;10.40;69.10
4386;DHT22;2207;53.540;10.042;2023-05-07T06:29:35;10.40;68.70
4386;DHT22;2207;53.540;10.042;2023-05-07T06:32:09;10.50;68.60
4386;DHT22;2207;53.540;10.042;2023-05-07T06:34:36;10.50;68.60
4386;DHT22;2207;53.540;10.042;2023-05-07T06:37:03;10.50;68.30
4386;DHT22;2207;53.540;10.042;2023-05-07T06:39:30;10.50;68.30
4386;DHT22;2207;53.540;10.042;2023-05-07T06:41:57;10.50;68.90
4386;DHT22;2207;53.540;10.042;2023-05-07T06:44:24;10.50;68.30
4386;DHT22;2207;53.540;10.042;2023-05-07T06:46:50;10.60;68.20
4386;DHT22;2207;53.540;10.042;2023-05-07T06:49:18;10.60;67.90
4386;DHT22;2207;53.540;10.042;2023-05-07T06:51:45;10.50;67.90
4386;DHT22;2207;53.540;10.042;2023-05-07T06:54:12;10.60;67.60
4386;DHT22;2207;53.540;10.042;2023-05-07T06:56:38;10.60;68.00
4386;DHT22;2207;53.540;10.042;2023-05-07T06:59:05;10.70;68.20
4386;DHT22;2207;53.540;10.042;2023-05-07T07:01:32;10.70;67.70
4386;DHT22;2207;53.540;10.042;2023-05-07T07:03:59;10.70;67.20
4386;DHT22;2207;53.540;10.042;2023-05-07T07:06:27;10.80;67.50
4386;DHT22;2207;53.540;10.042;2023-05-07T07:08:54;10.90;67.10
4386;DHT22;2207;53.540;10.042;2023-05-07T07:11:20;11.00;67.20
4386;DHT22;2207;53.540;10.042;2023-05-07T07:13:47;11.00;66.40
4386;DHT22;2207;53.540;10.042;2023-05-07T07:16:13;11.10;66.70
4386;DHT22;2207;53.540;10.042;2023-05-07T07:18:40;11.10;66.40
4386;DHT22;2207;53.540;10.042;2023-05-07T07:21:07;11.20;65.40
4386;DHT22;2207;53.540;10.042;2023-05-07T07:23:35;11.20;65.20
4386;DHT22;2207;53.540;10.042;2023-05-07T07:26:01;11.10;65.70
4386;DHT22;2207;53.540;10.042;2023-05-07T07:28:28;11.20;65.90
4386;DHT22;2207;53.540;10.042;2023-05-07T07:30:55;11.20;64.90
4386;DHT22;2207;53.540;10.042;2023-05-07T07:33:23;11.20;65.20
4386;DHT22;2207;53.540;10.042;2023-05-07T07:35:49;11.20;64.90
4386;DHT22;2207;53.540;10.042;2023-05-07T07:38:16;11.20;65.00
4386;DHT22;2207;53.540;10.042;2023-05-07T07:40:44;11.30;65.00
4386;DHT22;2207;53.540;10.042;2023-05-07T07:43:11;11.40;64.70
4386;DHT22;2207;53.540;10.042;2023-05-07T07:45:38;11.40;64.70
4386;DHT22;2207;53.540;10.042;2023-05-07T07:48:05;11.50;64.40
4386;DHT22;2207;53.540;10.042;2023-05-07T07:50:31;11.50;64.70
4386;DHT22;2207;53.540;10.042;2023-05-07T07:52:58;11.60;64.90
4386;DHT22;2207;53.540;10.042;2023-05-07T07:55:25;11.60;64.30
4386;DHT22;2207;53.540;10.042;2023-05-07T07:57:54;11.60;64.10
4386;DHT22;2207;53.540;10.042;2023-05-07T08:00:20;11.50;64.20
4386;DHT22;2207;53.540;10.042;2023-05-07T08:02:47;11.60;64.40
4386;DHT22;2207;53.540;10.042;2023-05-07T08:05:14;11.60;64.10
4386;DHT22;2207;53.540;10.042;2023-05-07T08:07:41;11.60;64.30
4386;DHT22;2207;53.540;10.042;2023-05-07T08:10:08;11.60;64.30
4386;DHT22;2207;53.540;10.042;2023-05-07T08:12:35;11.80;64.50
4386;DHT22;2207;53.540;10.042;2023-05-07T08:15:03;11.80;63.90
4386;DHT22;2207;53.540;10.042;2023-05-07T08:17:30;11.80;63.80
4386;DHT22;2207;53.540;10.042;2023-05-07T08:19:57;11.90;64.10
4386;DHT22;2207;53.540;10.042;2023-05-07T08:22:23;11.90;63.20
4386;DHT22;2207;53.540;10.042;2023-05-07T08:24:50;11.90;63.20
4386;DHT22;2207;53.540;10.042;2023-05-07T08:27:18;11.90;63.00
4386;DHT22;2207;53.540;10.042;2023-05-07T08:29:45;11.80;63.10
4386;DHT22;2207;53.540;10.042;2023-05-07T08:32:14;11.80;63.30
4386;DHT22;2207;53.540;10.042;2023-05-07T08:34:41;11.80;62.90
4386;DHT22;2207;53.540;10.042;2023-05-07T08:37:08;11.70;62.90
4386;DHT22;2207;53.540;10.042;2023-05-07T08:39:34;11.80;63.40
4386;DHT22;2207;53.540;10.042;2023-05-07T08:42:01;11.90;63.60
4386;DHT22;2207;53.540;10.042;2023-05-07T08:44:33;12.10;63.60
4386;DHT22;2207;53.540;10.042;2023-05-07T08:47:00;12.10;62.60
4386;DHT22;2207;53.540;10.042;2023-05-07T08:49:29;12.10;62.70
4386;DHT22;2207;53.540;10.042;2023-05-07T08:51:55;12.10;61.90
4386;DHT22;2207;53.540;10.042;2023-05-07T08:54:22;11.90;62.20
4386;DHT22;2207;53.540;10.042;2023-05-07T08:56:50;11.80;63.00
4386;DHT22;2207;53.540;10.042;2023-05-07T08:59:17;11.80;63.40
4386;DHT22;2207;53.540;10.042;2023-05-07T09:01:43;12.00;63.60
4386;DHT22;2207;53.540;10.042;2023-05-07T09:04:10;12.20;62.70
4386;DHT22;2207;53.540;10.042;2023-05-07T09:06:39;12.20;62.10
4386;DHT22;2207;53.540;10.042;2023-05-07T09:09:07;12.20;61.90
4386;DHT22;2207;53.540;10.042;2023-05-07T09:11:34;12.20;61.90
4386;DHT22;2207;53.540;10.042;2023-05-07T09:14:01;12.20;61.50
4386;DHT22;2207;53.540;10.042;2023-05-07T09:16:29;12.20;61.40
4386;DHT22;2207;53.540;10.042;2023-05-07T09:18:58;12.30;62.20
4386;DHT22;2207;53.540;10.042;2023-05-07T09:21:25;12.40;61.40
4386;DHT22;2207;53.540;10.042;2023-05-07T09:23:55;12.70;61.40
4386;DHT22;2207;53.540;10.042;2023-05-07T09:26:22;12.80;60.70
4386;DHT22;2207;53.540;10.042;2023-05-07T09:28:49;13.00;60.50
4386;DHT22;2207;53.540;10.042;2023-05-07T09:31:16;13.20;59.70
4386;DHT22;2207;53.540;10.042;2023-05-07T09:33:42;13.20;59.20
4386;DHT22;2207;53.540;10.042;2023-05-07T09:36:10;13.20;59.00
4386;DHT22;2207;53.540;10.042;2023-05-07T09:38:37;13.10;58.80
4386;DHT22;2207;53.540;10.042;2023-05-07T09:41:07;13.20;59.00
4386;DHT22;2207;53.540;10.042;2023-05-07T09:43:35;13.20;58.90
4386;DHT22;2207;53.540;10.042;2023-05-07T09:46:03;13.30;58.80
4386;DHT22;2207;53.540;10.042;2023-05-07T09:48:34;13.30;58.60
4386;DHT22;2207;53.540;10.042;2023-05-07T09:51:02;13.30;58.30
4386;DHT22;2207;53.540;10.042;2023-05-07T09:53:33;13.20;58.60
4386;DHT22;2207;53.540;10.042;2023-05-07T09:56:01;13.20;58.50
4386;DHT22;2207;53.540;10.042;2023-05-07T09:58:31;13.30;58.50
4386;DHT22;2207;53.540;10.042;2023-05-07T10:00:58;13.40;58.90
4386;DHT22;2207;53.540;10.042;2023-05-07T10:03:26;13.50;57.70
4386;DHT22;2207;53.540;10.042;2023-05-07T10:05:54;13.50;57.70
4386;DHT22;2207;53.540;10.042;2023-05-07T10:08:21;13.50;58.10
4386;DHT22;2207;53.540;10.042;2023-05-07T10:10:49;13.70;57.80
4386;DHT22;2207;53.540;10.042;2023-05-07T10:13:17;13.80;57.60
4386;DHT22;2207;53.540;10.042;2023-05-07T10:15:46;13.90;56.70
4386;DHT22;2207;53.540;10.042;2023-05-07T10:18:14;13.80;56.90
4386;DHT22;2207;53.540;10.042;2023-05-07T10:20:43;13.90;56.70
4386;DHT22;2207;53.540;10.042;2023-05-07T10:23:13;13.80;56.40
4386;DHT22;2207;53.540;10.042;2023-05-07T10:25:41;13.80;56.50
4386;DHT22;2207;53.540;10.042;2023-05-07T10:28:10;13.80;56.80
4386;DHT22;2207;53.540;10.042;2023-05-07T10:30:48;14.00;56.90
4386;DHT22;2207;53.540;10.042;2023-05-07T10:33:22;14.10;56.20
4386;DHT22;2207;53.540;10.042;2023-05-07T10:35:50;14.20;56.00
4386;DHT22;2207;53.540;10.042;2023-05-07T10:38:17;14.10;55.70
4386;DHT22;2207;53.540;10.042;2023-05-07T10:40:44;14.00;55.80
4386;DHT22;2207;53.540;10.042;2023-05-07T10:43:11;14.00;56.10
4386;DHT22;2207;53.540;10.042;2023-05-07T10:45:38;14.00;56.00
4386;DHT22;2207;53.540;10.042;2023-05-07T10:48:10;14.10;55.70
4386;DHT22;2207;53.540;10.042;2023-05-07T10:50:38;14.20;55.80
4386;DHT22;2207;53.540;10.042;2023-05-07T10:53:24;14.20;55.10
4386;DHT22;2207;53.540;10.042;2023-05-07T10:56:25;14.10;55.30
4386;DHT22;2207;53.540;10.042;2023-05-07T10:58:55;14.00;55.40
4386;DHT22;2207;53.540;10.042;2023-05-07T11:01:50;14.10;55.80
4386;DHT22;2207;53.540;10.042;2023-05-07T11:04:18;14.30;55.30
4386;DHT22;2207;53.540;10.042;2023-05-07T11:10:01;14.40;55.20
4386;DHT22;2207;53.540;10.042;2023-05-07T11:12:54;14.50;55.10
4386;DHT22;2207;53.540;10.042;2023-05-07T11:15:35;14.70;54.20
4386;DHT22;2207;53.540;10.042;2023-05-07T11:18:02;14.60;54.30
4386;DHT22;2207;53.540;10.042;2023-05-07T11:20:48;14.50;54.70
4386;DHT22;2207;53.540;10.042;2023-05-07T11:23:56;14.80;54.60
4386;DHT22;2207;53.540;10.042;2023-05-07T11:26:26;14.90;54.00
4386;DHT22;2207;53.540;10.042;2023-05-07T11:28:53;15.00;54.40
4386;DHT22;2207;53.540;10.042;2023-05-07T11:31:21;15.10;53.60
4386;DHT22;2207;53.540;10.042;2023-05-07T11:33:49;15.20;54.00
4386;DHT22;2207;53.540;10.042;2023-05-07T11:36:18;15.50;53.30
4386;DHT22;2207;53.540;10.042;2023-05-07T11:38:45;15.70;52.90
4386;DHT22;2207;53.540;10.042;2023-05-07T11:41:12;15.70;52.80
4386;DHT22;2207;53.540;10.042;2023-05-07T11:43:56;15.70;52.70
4386;DHT22;2207;53.540;10.042;2023-05-07T11:46:23;15.90;51.90
4386;DHT22;2207;53.540;10.042;2023-05-07T11:48:50;15.80;52.30
4386;DHT22;2207;53.540;10.042;2023-05-07T11:51:23;15.90;52.20
4386;DHT22;2207;53.540;10.042;2023-05-07T11:53:51;15.90;51.70
4386;DHT22;2207;53.540;10.042;2023-05-07T11:56:18;15.70;51.30
4386;DHT22;2207;53.540;10.042;2023-05-07T11:58:47;15.60;51.70
4386;DHT22;2207;53.540;10.042;2023-05-07T12:01:15;15.50;52.20
4386;DHT22;2207;53.540;10.042;2023-05-07T12:03:44;15.70;52.30
4386;DHT22;2207;53.540;10.042;2023-05-07T12:06:12;15.80;52.30
4386;DHT22;2207;53.540;10.042;2023-05-07T12:08:42;16.10;51.90
4386;DHT22;2207;53.540;10.042;2023-05-07T12:11:10;16.10;50.90
4386;DHT22;2207;53.540;10.042;2023-05-07T12:13:37;16.00;51.30
4386;DHT22;2207;53.540;10.042;2023-05-07T12:16:05;16.00;51.60
4386;DHT22;2207;53.540;10.042;2023-05-07T12:18:34;15.90;51.40
4386;DHT22;2207;53.540;10.042;2023-05-07T12:21:01;15.90;51.50
4386;DHT22;2207;53.540;10.042;2023-05-07T12:23:29;15.90;51.20
4386;DHT22;2207;53.540;10.042;2023-05-07T12:25:57;16.00;51.80
4386;DHT22;2207;53.540;10.042;2023-05-07T12:28:25;16.20;51.50
4386;DHT22;2207;53.540;10.042;2023-05-07T12:30:52;16.40;51.40
4386;DHT22;2207;53.540;10.042;2023-05-07T12:33:24;16.40;50.40
4386;DHT22;2207;53.540;10.042;2023-05-07T12:35:53;16.30;51.00
4386;DHT22;2207;53.540;10.042;2023-05-07T12:38:20;16.30;50.70
4386;DHT22;2207;53.540;10.042;2023-05-07T12:40:48;16.20;50.90
4386;DHT22;2207;53.540;10.042;2023-05-07T12:43:18;16.40;51.40
4386;DHT22;2207;53.540;10.042;2023-05-07T12:45:45;16.40;50.50
4386;DHT22;2207;53.540;10.042;2023-05-07T12:48:13;16.20;50.90
4386;DHT22;2207;53.540;10.042;2023-05-07T12:50:39;16.40;51.10
4386;DHT22;2207;53.540;10.042;2023-05-07T12:53:07;16.50;51.10
4386;DHT22;2207;53.540;10.042;2023-05-07T12:55:41;16.70;51.00
4386;DHT22;2207;53.540;10.042;2023-05-07T12:58:14;16.90;50.50
4386;DHT22;2207;53.540;10.042;2023-05-07T13:00:42;16.70;49.80
4386;DHT22;2207;53.540;10.042;2023-05-07T13:03:10;16.50;50.50
4386;DHT22;2207;53.540;10.042;2023-05-07T13:05:36;16.40;51.00
4386;DHT22;2207;53.540;10.042;2023-05-07T13:08:04;16.50;51.10
4386;DHT22;2207;53.540;10.042;2023-05-07T13:10:31;16.50;50.80
4386;DHT22;2207;53.540;10.042;2023-05-07T13:12:59;16.40;51.00
4386;DHT22;2207;53.540;10.042;2023-05-07T13:15:26;16.40;51.00
4386;DHT22;2207;53.540;10.042;2023-05-07T13:17:54;16.40;50.90
4386;DHT22;2207;53.540;10.042;2023-05-07T13:20:21;16.10;50.90
4386;DHT22;2207;53.540;10.042;2023-05-07T13:22:48;16.00;51.20
4386;DHT22;2207;53.540;10.042;2023-05-07T13:25:15;15.90;51.70
4386;DHT22;2207;53.540;10.042;2023-05-07T13:27:42;15.90;51.90
4386;DHT22;2207;53.540;10.042;2023-05-07T13:30:08;15.90;51.80
4386;DHT22;2207;53.540;10.042;2023-05-07T13:32:35;15.80;51.50
4386;DHT22;2207;53.540;10.042;2023-05-07T13:35:04;15.70;51.90
4386;DHT22;2207;53.540;10.042;2023-05-07T13:37:31;15.60;52.30
4386;DHT22;2207;53.540;10.042;2023-05-07T13:39:58;15.70;52.30
4386;DHT22;2207;53.540;10.042;2023-05-07T13:42:24;15.60;52.20
4386;DHT22;2207;53.540;10.042;2023-05-07T13:44:51;15.60;52.10
4386;DHT22;2207;53.540;10.042;2023-05-07T13:47:18;15.50;52.30
4386;DHT22;2207;53.540;10.042;2023-05-07T13:49:45;15.40;52.40
4386;DHT22;2207;53.540;10.042;2023-05-07T13:52:13;15.50;52.70
4386;DHT22;2207;53.540;10.042;2023-05-07T13:54:39;15.40;52.50
4386;DHT22;2207;53.540;10.042;2023-05-07T13:57:06;15.40;52.50
4386;DHT22;2207;53.540;10.042;2023-05-07T13:59:33;15.30;52.60
4386;DHT22;2207;53.540;10.042;2023-05-07T14:02:00;15.30;52.90
4386;DHT22;2207;53.540;10.042;2023-05-07T14:04:26;15.40;53.00
4386;DHT22;2207;53.540;10.042;2023-05-07T14:06:53;15.40;52.80
4386;DHT22;2207;53.540;10.042;2023-05-07T14:09:21;15.40;52.70
4386;DHT22;2207;53.540;10.042;2023-05-07T14:11:48;15.40;52.90
4386;DHT22;2207;53.540;10.042;2023-05-07T14:14:16;15.40;52.90
4386;DHT22;2207;53.540;10.042;2023-05-07T14:16:43;15.40;52.80
4386;DHT22;2207;53.540;10.042;2023-05-07T14:19:10;15.30;52.80
4386;DHT22;2207;53.540;10.042;2023-05-07T14:21:37;15.40;53.00
4386;DHT22;2207;53.540;10.042;2023-05-07T14:24:05;15.30;52.60
4386;DHT22;2207;53.540;10.042;2023-05-07T14:26:33;15.40;52.50
4386;DHT22;2207;53.540;10.042;2023-05-07T14:29:00;15.30;52.50
4386;DHT22;2207;53.540;10.042;2023-05-07T14:31:27;15.40;52.70
4386;DHT22;2207;53.540;10.042;2023-05-07T14:33:54;15.50;52.70
4386;DHT22;2207;53.540;10.042;2023-05-07T14:36:23;15.60;52.40
4386;DHT22;2207;53.540;10.042;2023-05-07T14:38:51;15.70;52.40
4386;DHT22;2207;53.540;10.042;2023-05-07T14:41:19;15.90;52.00
4386;DHT22;2207;53.540;10.042;2023-05-07T14:43:47;16.10;51.90
4386;DHT22;2207;53.540;10.042;2023-05-07T14:46:15;16.20;51.40
4386;DHT22;2207;53.540;10.042;2023-05-07T14:48:43;16.40;51.00
4386;DHT22;2207;53.540;10.042;2023-05-07T14:51:10;16.50;50.50
4386;DHT22;2207;53.540;10.042;2023-05-07T14:53:37;16.60;49.90
4386;DHT22;2207;53.540;10.042;2023-05-07T14:56:04;16.70;49.60
4386;DHT22;2207;53.540;10.042;2023-05-07T14:58:31;16.80;49.90
4386;DHT22;2207;53.540;10.042;2023-05-07T15:01:00;16.90;48.90
4386;DHT22;2207;53.540;10.042;2023-05-07T15:03:27;16.80;48.60
4386;DHT22;2207;53.540;10.042;2023-05-07T15:05:53;16.80;49.30
4386;DHT22;2207;53.540;10.042;2023-05-07T15:08:20;16.80;49.30
4386;DHT22;2207;53.540;10.042;2023-05-07T15:10:47;16.80;48.80
4386;DHT22;2207;53.540;10.042;2023-05-07T15:13:14;16.70;49.00
4386;DHT22;2207;53.540;10.042;2023-05-07T15:15:42;16.70;49.20
4386;DHT22;2207;53.540;10.042;2023-05-07T15:18:10;16.70;49.30
4386;DHT22;2207;53.540;10.042;2023-05-07T15:20:37;16.70;49.20
4386;DHT22;2207;53.540;10.042;2023-05-07T15:23:05;16.70;49.00
4386;DHT22;2207;53.540;10.042;2023-05-07T15:25:35;16.80;48.70
4386;DHT22;2207;53.540;10.042;2023-05-07T15:28:02;16.80;48.80
4386;DHT22;2207;53.540;10.042;2023-05-07T15:30:29;16.90;48.90
4386;DHT22;2207;53.540;10.042;2023-05-07T15:32:56;16.90;48.50
4386;DHT22;2207;53.540;10.042;2023-05-07T15:35:24;16.80;48.30
4386;DHT22;2207;53.540;10.042;2023-05-07T15:37:51;16.70;48.70
4386;DHT22;2207;53.540;10.042;2023-05-07T15:40:18;16.60;48.70
4386;DHT22;2207;53.540;10.042;2023-05-07T15:42:46;16.50;48.80
4386;DHT22;2207;53.540;10.042;2023-05-07T15:45:13;16.50;48.90
4386;DHT22;2207;53.540;10.042;2023-05-07T15:47:39;16.40;49.10
4386;DHT22;2207;53.540;10.042;2023-05-07T15:50:07;16.40;49.30
4386;DHT22;2207;53.540;10.042;2023-05-07T15:52:35;16.40;49.40
4386;DHT22;2207;53.540;10.042;2023-05-07T15:55:03;16.40;49.20
4386;DHT22;2207;53.540;10.042;2023-05-07T15:57:31;16.40;49.30
4386;DHT22;2207;53.540;10.042;2023-05-07T15:59:58;16.50;49.30